Terminal Aerodrome Forecast
Issued by NWS

Current Version | Previous Version | Graphics & Text | Print | Product List | Glossary On
Versions: 1 2 3 4 5 6 7 8 9 10 11 12 13 14 15 16 17 18 19 20 21 22 23 24 25
000
FTUS41 KPBZ 242300
TAFMGW
TAF
KMGW 242320Z 2500/2524 25010G20KT P6SM SCT040
     FM250600 23010KT P6SM BKN035
     FM251500 24010G20KT P6SM BKN035
     FM252000 25005KT P6SM SCT035=

USA.gov is the U.S. government's official web portal to all federal, state and local government web resources and services.